sensor_id;sensor_type;location;lat;lon;timestamp;P1;durP1;ratioP1;P2;durP2;ratioP2
64199;SDS011;50516;52.272;5.136;2022-12-18T00:01:32;69.07;;;30.20;;
64199;SDS011;50516;52.272;5.136;2022-12-18T00:04:00;66.97;;;29.03;;
64199;SDS011;50516;52.272;5.136;2022-12-18T00:06:27;64.03;;;29.17;;
64199;SDS011;50516;52.272;5.136;2022-12-18T00:08:54;70.40;;;31.23;;
64199;SDS011;50516;52.272;5.136;2022-12-18T00:11:21;62.57;;;27.43;;
64199;SDS011;50516;52.272;5.136;2022-12-18T00:13:49;74.23;;;32.00;;
64199;SDS011;50516;52.272;5.136;2022-12-18T00:16:16;66.47;;;30.80;;
64199;SDS011;50516;52.272;5.136;2022-12-18T00:18:45;75.53;;;32.37;;
64199;SDS011;50516;52.272;5.136;2022-12-18T00:21:11;73.57;;;34.37;;
64199;SDS011;50516;52.272;5.136;2022-12-18T00:23:38;80.17;;;32.70;;
64199;SDS011;50516;52.272;5.136;2022-12-18T00:26:05;76.97;;;33.17;;
64199;SDS011;50516;52.272;5.136;2022-12-18T00:28:33;65.40;;;30.47;;
64199;SDS011;50516;52.272;5.136;2022-12-18T00:31:01;74.70;;;32.37;;
64199;SDS011;50516;52.272;5.136;2022-12-18T00:33:35;64.93;;;31.23;;
64199;SDS011;50516;52.272;5.136;2022-12-18T00:36:02;64.07;;;29.40;;
64199;SDS011;50516;52.272;5.136;2022-12-18T00:38:36;74.20;;;30.75;;
64199;SDS011;50516;52.272;5.136;2022-12-18T00:41:02;76.17;;;30.60;;
64199;SDS011;50516;52.272;5.136;2022-12-18T00:43:28;67.50;;;30.03;;
64199;SDS011;50516;52.272;5.136;2022-12-18T00:45:54;63.77;;;29.93;;
64199;SDS011;50516;52.272;5.136;2022-12-18T00:48:19;68.00;;;30.03;;
64199;SDS011;50516;52.272;5.136;2022-12-18T00:50:45;67.30;;;31.10;;
64199;SDS011;50516;52.272;5.136;2022-12-18T00:53:13;69.00;;;30.13;;
64199;SDS011;50516;52.272;5.136;2022-12-18T00:55:39;61.97;;;29.90;;
64199;SDS011;50516;52.272;5.136;2022-12-18T00:58:05;71.00;;;30.43;;
64199;SDS011;50516;52.272;5.136;2022-12-18T01:00:30;66.67;;;30.63;;
64199;SDS011;50516;52.272;5.136;2022-12-18T01:02:55;66.97;;;31.17;;
64199;SDS011;50516;52.272;5.136;2022-12-18T01:05:21;69.63;;;30.33;;
64199;SDS011;50516;52.272;5.136;2022-12-18T01:07:46;65.60;;;29.20;;
64199;SDS011;50516;52.272;5.136;2022-12-18T01:10:12;66.13;;;30.07;;
64199;SDS011;50516;52.272;5.136;2022-12-18T01:12:38;69.30;;;29.40;;
64199;SDS011;50516;52.272;5.136;2022-12-18T01:15:04;63.67;;;28.67;;
64199;SDS011;50516;52.272;5.136;2022-12-18T01:17:31;67.77;;;31.67;;
64199;SDS011;50516;52.272;5.136;2022-12-18T01:19:57;66.27;;;29.87;;
64199;SDS011;50516;52.272;5.136;2022-12-18T01:22:23;69.43;;;30.97;;
64199;SDS011;50516;52.272;5.136;2022-12-18T01:24:48;66.70;;;29.90;;
64199;SDS011;50516;52.272;5.136;2022-12-18T01:27:13;65.10;;;29.73;;
64199;SDS011;50516;52.272;5.136;2022-12-18T01:29:40;69.50;;;31.20;;
64199;SDS011;50516;52.272;5.136;2022-12-18T01:32:05;64.73;;;30.50;;
64199;SDS011;50516;52.272;5.136;2022-12-18T01:34:31;65.60;;;28.17;;
64199;SDS011;50516;52.272;5.136;2022-12-18T01:36:56;62.93;;;28.20;;
64199;SDS011;50516;52.272;5.136;2022-12-18T01:39:22;68.63;;;29.47;;
64199;SDS011;50516;52.272;5.136;2022-12-18T01:41:47;64.03;;;29.67;;
64199;SDS011;50516;52.272;5.136;2022-12-18T01:50:17;68.23;;;30.27;;
64199;SDS011;50516;52.272;5.136;2022-12-18T01:55:40;63.50;;;29.20;;
64199;SDS011;50516;52.272;5.136;2022-12-18T01:58:10;63.03;;;29.17;;
64199;SDS011;50516;52.272;5.136;2022-12-18T02:00:35;62.37;;;29.17;;
64199;SDS011;50516;52.272;5.136;2022-12-18T02:03:01;59.83;;;29.07;;
64199;SDS011;50516;52.272;5.136;2022-12-18T02:10:32;59.43;;;28.17;;
64199;SDS011;50516;52.272;5.136;2022-12-18T02:15:47;58.40;;;29.13;;
64199;SDS011;50516;52.272;5.136;2022-12-18T02:18:43;58.80;;;26.13;;
64199;SDS011;50516;52.272;5.136;2022-12-18T02:21:20;58.80;;;27.80;;
64199;SDS011;50516;52.272;5.136;2022-12-18T02:26:47;54.57;;;26.93;;
64199;SDS011;50516;52.272;5.136;2022-12-18T02:29:22;51.58;;;25.30;;
64199;SDS011;50516;52.272;5.136;2022-12-18T02:31:53;55.40;;;27.73;;
64199;SDS011;50516;52.272;5.136;2022-12-18T02:34:22;59.00;;;28.77;;
64199;SDS011;50516;52.272;5.136;2022-12-18T02:36:51;56.33;;;26.50;;
64199;SDS011;50516;52.272;5.136;2022-12-18T02:39:19;62.10;;;29.13;;
64199;SDS011;50516;52.272;5.136;2022-12-18T02:41:48;61.23;;;27.87;;
64199;SDS011;50516;52.272;5.136;2022-12-18T02:44:14;62.30;;;27.40;;
64199;SDS011;50516;52.272;5.136;2022-12-18T02:46:43;60.00;;;27.67;;
64199;SDS011;50516;52.272;5.136;2022-12-18T02:54:35;68.60;;;29.23;;
64199;SDS011;50516;52.272;5.136;2022-12-18T03:00:29;64.07;;;29.65;;
64199;SDS011;50516;52.272;5.136;2022-12-18T03:03:07;63.37;;;28.50;;
64199;SDS011;50516;52.272;5.136;2022-12-18T03:05:43;64.70;;;30.03;;
64199;SDS011;50516;52.272;5.136;2022-12-18T03:08:23;64.93;;;29.30;;
64199;SDS011;50516;52.272;5.136;2022-12-18T03:11:09;66.43;;;29.03;;
64199;SDS011;50516;52.272;5.136;2022-12-18T03:13:37;59.35;;;27.05;;
64199;SDS011;50516;52.272;5.136;2022-12-18T03:16:11;63.53;;;28.60;;
64199;SDS011;50516;52.272;5.136;2022-12-18T03:19:01;62.73;;;28.30;;
64199;SDS011;50516;52.272;5.136;2022-12-18T03:21:28;62.93;;;28.30;;
64199;SDS011;50516;52.272;5.136;2022-12-18T03:24:04;62.23;;;25.90;;
64199;SDS011;50516;52.272;5.136;2022-12-18T03:26:32;67.40;;;27.73;;
64199;SDS011;50516;52.272;5.136;2022-12-18T03:29:02;59.73;;;26.63;;
64199;SDS011;50516;52.272;5.136;2022-12-18T03:31:32;63.60;;;28.83;;
64199;SDS011;50516;52.272;5.136;2022-12-18T03:34:01;58.83;;;28.43;;
64199;SDS011;50516;52.272;5.136;2022-12-18T03:36:30;59.73;;;26.53;;
64199;SDS011;50516;52.272;5.136;2022-12-18T03:38:56;59.73;;;25.87;;
64199;SDS011;50516;52.272;5.136;2022-12-18T03:44:13;58.35;;;27.45;;
64199;SDS011;50516;52.272;5.136;2022-12-18T03:49:16;59.17;;;26.63;;
64199;SDS011;50516;52.272;5.136;2022-12-18T03:54:19;68.93;;;27.60;;
64199;SDS011;50516;52.272;5.136;2022-12-18T03:56:46;62.23;;;26.63;;
64199;SDS011;50516;52.272;5.136;2022-12-18T03:59:16;59.07;;;27.10;;
64199;SDS011;50516;52.272;5.136;2022-12-18T04:01:47;56.50;;;28.73;;
64199;SDS011;50516;52.272;5.136;2022-12-18T04:04:16;56.63;;;26.53;;
64199;SDS011;50516;52.272;5.136;2022-12-18T04:06:43;54.57;;;24.60;;
64199;SDS011;50516;52.272;5.136;2022-12-18T04:09:12;60.50;;;26.53;;
64199;SDS011;50516;52.272;5.136;2022-12-18T04:11:39;59.77;;;27.10;;
64199;SDS011;50516;52.272;5.136;2022-12-18T04:14:06;54.40;;;26.13;;
64199;SDS011;50516;52.272;5.136;2022-12-18T04:16:31;58.33;;;24.93;;
64199;SDS011;50516;52.272;5.136;2022-12-18T04:18:56;57.10;;;25.40;;
64199;SDS011;50516;52.272;5.136;2022-12-18T04:21:22;56.73;;;27.17;;
64199;SDS011;50516;52.272;5.136;2022-12-18T04:23:47;50.87;;;24.70;;
64199;SDS011;50516;52.272;5.136;2022-12-18T04:26:13;54.57;;;24.83;;
64199;SDS011;50516;52.272;5.136;2022-12-18T04:28:38;53.77;;;25.57;;
64199;SDS011;50516;52.272;5.136;2022-12-18T04:31:04;58.47;;;28.47;;
64199;SDS011;50516;52.272;5.136;2022-12-18T04:33:29;55.53;;;25.87;;
64199;SDS011;50516;52.272;5.136;2022-12-18T04:35:54;52.17;;;25.77;;
64199;SDS011;50516;52.272;5.136;2022-12-18T04:38:20;54.07;;;25.67;;
64199;SDS011;50516;52.272;5.136;2022-12-18T04:40:45;50.30;;;25.93;;
64199;SDS011;50516;52.272;5.136;2022-12-18T04:43:11;55.03;;;26.20;;
64199;SDS011;50516;52.272;5.136;2022-12-18T04:45:36;57.20;;;25.90;;
64199;SDS011;50516;52.272;5.136;2022-12-18T04:48:02;50.90;;;26.03;;
64199;SDS011;50516;52.272;5.136;2022-12-18T04:50:28;50.53;;;25.70;;
64199;SDS011;50516;52.272;5.136;2022-12-18T04:52:54;56.97;;;26.33;;
64199;SDS011;50516;52.272;5.136;2022-12-18T04:55:20;55.87;;;24.87;;
64199;SDS011;50516;52.272;5.136;2022-12-18T04:57:46;48.67;;;22.90;;
64199;SDS011;50516;52.272;5.136;2022-12-18T05:00:11;60.60;;;26.83;;
64199;SDS011;50516;52.272;5.136;2022-12-18T05:02:37;59.73;;;28.63;;
64199;SDS011;50516;52.272;5.136;2022-12-18T05:05:03;54.97;;;24.40;;
64199;SDS011;50516;52.272;5.136;2022-12-18T05:07:29;47.33;;;24.20;;
64199;SDS011;50516;52.272;5.136;2022-12-18T05:09:54;49.53;;;23.23;;
64199;SDS011;50516;52.272;5.136;2022-12-18T05:12:20;51.10;;;24.57;;
64199;SDS011;50516;52.272;5.136;2022-12-18T05:14:45;48.30;;;24.40;;
64199;SDS011;50516;52.272;5.136;2022-12-18T05:17:11;50.13;;;25.37;;
64199;SDS011;50516;52.272;5.136;2022-12-18T05:19:36;52.50;;;24.43;;
64199;SDS011;50516;52.272;5.136;2022-12-18T05:22:01;48.90;;;23.60;;
64199;SDS011;50516;52.272;5.136;2022-12-18T05:24:27;51.53;;;23.43;;
64199;SDS011;50516;52.272;5.136;2022-12-18T05:26:52;48.70;;;22.70;;
64199;SDS011;50516;52.272;5.136;2022-12-18T05:29:17;47.20;;;22.50;;
64199;SDS011;50516;52.272;5.136;2022-12-18T05:31:43;46.30;;;23.80;;
64199;SDS011;50516;52.272;5.136;2022-12-18T05:34:08;46.67;;;24.13;;
64199;SDS011;50516;52.272;5.136;2022-12-18T05:36:33;49.70;;;23.17;;
64199;SDS011;50516;52.272;5.136;2022-12-18T05:38:58;44.07;;;20.50;;
64199;SDS011;50516;52.272;5.136;2022-12-18T05:41:25;41.53;;;20.83;;
64199;SDS011;50516;52.272;5.136;2022-12-18T05:43:50;39.83;;;19.37;;
64199;SDS011;50516;52.272;5.136;2022-12-18T05:46:16;44.90;;;21.80;;
64199;SDS011;50516;52.272;5.136;2022-12-18T05:48:43;43.10;;;19.97;;
64199;SDS011;50516;52.272;5.136;2022-12-18T05:51:11;43.50;;;21.70;;
64199;SDS011;50516;52.272;5.136;2022-12-18T05:53:41;47.07;;;22.77;;
64199;SDS011;50516;52.272;5.136;2022-12-18T05:56:09;49.20;;;22.37;;
64199;SDS011;50516;52.272;5.136;2022-12-18T05:58:39;44.87;;;22.90;;
64199;SDS011;50516;52.272;5.136;2022-12-18T06:01:06;41.20;;;20.43;;
64199;SDS011;50516;52.272;5.136;2022-12-18T06:03:34;42.40;;;21.10;;
64199;SDS011;50516;52.272;5.136;2022-12-18T06:05:59;41.43;;;20.20;;
64199;SDS011;50516;52.272;5.136;2022-12-18T06:08:25;40.17;;;21.13;;
64199;SDS011;50516;52.272;5.136;2022-12-18T06:10:50;37.70;;;18.67;;
64199;SDS011;50516;52.272;5.136;2022-12-18T06:13:17;37.13;;;19.77;;
64199;SDS011;50516;52.272;5.136;2022-12-18T06:15:43;35.50;;;18.23;;
64199;SDS011;50516;52.272;5.136;2022-12-18T06:18:08;42.10;;;20.10;;
64199;SDS011;50516;52.272;5.136;2022-12-18T06:20:34;38.07;;;20.07;;
64199;SDS011;50516;52.272;5.136;2022-12-18T06:23:01;39.20;;;17.97;;
64199;SDS011;50516;52.272;5.136;2022-12-18T06:25:27;38.23;;;18.53;;
64199;SDS011;50516;52.272;5.136;2022-12-18T06:27:52;32.60;;;17.47;;
64199;SDS011;50516;52.272;5.136;2022-12-18T06:30:17;41.70;;;19.77;;
64199;SDS011;50516;52.272;5.136;2022-12-18T06:32:43;34.07;;;17.93;;
64199;SDS011;50516;52.272;5.136;2022-12-18T06:35:08;37.20;;;16.53;;
64199;SDS011;50516;52.272;5.136;2022-12-18T06:37:33;33.70;;;16.73;;
64199;SDS011;50516;52.272;5.136;2022-12-18T06:39:59;31.30;;;16.00;;
64199;SDS011;50516;52.272;5.136;2022-12-18T06:42:25;31.47;;;15.90;;
64199;SDS011;50516;52.272;5.136;2022-12-18T06:44:51;29.73;;;15.97;;
64199;SDS011;50516;52.272;5.136;2022-12-18T06:47:17;33.87;;;17.70;;
64199;SDS011;50516;52.272;5.136;2022-12-18T06:49:43;33.70;;;17.13;;
64199;SDS011;50516;52.272;5.136;2022-12-18T06:52:08;29.33;;;15.90;;
64199;SDS011;50516;52.272;5.136;2022-12-18T06:54:33;30.40;;;16.60;;
64199;SDS011;50516;52.272;5.136;2022-12-18T06:56:59;34.80;;;17.07;;
64199;SDS011;50516;52.272;5.136;2022-12-18T06:59:24;31.73;;;15.73;;
64199;SDS011;50516;52.272;5.136;2022-12-18T07:01:49;30.57;;;15.60;;
64199;SDS011;50516;52.272;5.136;2022-12-18T07:04:15;34.00;;;16.73;;
64199;SDS011;50516;52.272;5.136;2022-12-18T07:06:40;28.73;;;14.33;;
64199;SDS011;50516;52.272;5.136;2022-12-18T07:09:05;30.90;;;16.10;;
64199;SDS011;50516;52.272;5.136;2022-12-18T07:11:32;27.93;;;14.40;;
64199;SDS011;50516;52.272;5.136;2022-12-18T07:13:58;27.47;;;14.63;;
64199;SDS011;50516;52.272;5.136;2022-12-18T07:16:23;26.40;;;14.83;;
64199;SDS011;50516;52.272;5.136;2022-12-18T07:18:48;29.27;;;15.93;;
64199;SDS011;50516;52.272;5.136;2022-12-18T07:21:15;29.90;;;16.13;;
64199;SDS011;50516;52.272;5.136;2022-12-18T07:23:42;25.00;;;13.50;;
64199;SDS011;50516;52.272;5.136;2022-12-18T07:26:09;30.17;;;15.50;;
64199;SDS011;50516;52.272;5.136;2022-12-18T07:28:37;30.30;;;15.43;;
64199;SDS011;50516;52.272;5.136;2022-12-18T07:31:08;29.50;;;14.83;;
64199;SDS011;50516;52.272;5.136;2022-12-18T07:33:36;23.87;;;14.83;;
64199;SDS011;50516;52.272;5.136;2022-12-18T07:36:02;29.27;;;14.57;;
64199;SDS011;50516;52.272;5.136;2022-12-18T07:38:29;27.60;;;15.17;;
64199;SDS011;50516;52.272;5.136;2022-12-18T07:41:00;28.60;;;14.17;;
64199;SDS011;50516;52.272;5.136;2022-12-18T07:43:26;26.00;;;14.60;;
64199;SDS011;50516;52.272;5.136;2022-12-18T07:45:51;26.33;;;14.00;;
64199;SDS011;50516;52.272;5.136;2022-12-18T07:48:17;28.77;;;13.97;;
64199;SDS011;50516;52.272;5.136;2022-12-18T07:50:42;24.67;;;13.43;;
64199;SDS011;50516;52.272;5.136;2022-12-18T07:53:07;26.17;;;15.43;;
64199;SDS011;50516;52.272;5.136;2022-12-18T07:55:33;27.00;;;13.40;;
64199;SDS011;50516;52.272;5.136;2022-12-18T07:58:00;31.20;;;14.63;;
64199;SDS011;50516;52.272;5.136;2022-12-18T08:00:27;25.33;;;13.53;;
64199;SDS011;50516;52.272;5.136;2022-12-18T08:02:52;29.20;;;15.17;;
64199;SDS011;50516;52.272;5.136;2022-12-18T08:05:18;27.63;;;14.53;;
64199;SDS011;50516;52.272;5.136;2022-12-18T08:07:43;26.73;;;14.77;;
64199;SDS011;50516;52.272;5.136;2022-12-18T08:10:09;27.60;;;13.50;;
64199;SDS011;50516;52.272;5.136;2022-12-18T08:12:34;25.07;;;13.57;;
64199;SDS011;50516;52.272;5.136;2022-12-18T08:14:59;24.10;;;13.60;;
64199;SDS011;50516;52.272;5.136;2022-12-18T08:17:25;24.33;;;13.77;;
64199;SDS011;50516;52.272;5.136;2022-12-18T08:19:50;25.57;;;14.47;;
64199;SDS011;50516;52.272;5.136;2022-12-18T08:22:16;26.07;;;14.30;;
64199;SDS011;50516;52.272;5.136;2022-12-18T08:24:41;27.57;;;12.90;;
64199;SDS011;50516;52.272;5.136;2022-12-18T08:27:06;23.90;;;14.07;;
64199;SDS011;50516;52.272;5.136;2022-12-18T08:29:31;25.03;;;14.43;;
64199;SDS011;50516;52.272;5.136;2022-12-18T08:31:57;23.97;;;14.00;;
64199;SDS011;50516;52.272;5.136;2022-12-18T08:34:22;26.87;;;15.17;;
64199;SDS011;50516;52.272;5.136;2022-12-18T08:36:48;25.03;;;13.40;;
64199;SDS011;50516;52.272;5.136;2022-12-18T08:39:13;29.03;;;14.37;;
64199;SDS011;50516;52.272;5.136;2022-12-18T08:41:39;24.20;;;13.53;;
64199;SDS011;50516;52.272;5.136;2022-12-18T08:44:04;24.60;;;13.80;;
64199;SDS011;50516;52.272;5.136;2022-12-18T08:46:48;22.40;;;14.00;;
64199;SDS011;50516;52.272;5.136;2022-12-18T08:49:13;21.27;;;12.87;;
64199;SDS011;50516;52.272;5.136;2022-12-18T08:51:39;22.80;;;13.47;;
64199;SDS011;50516;52.272;5.136;2022-12-18T08:54:05;26.00;;;13.97;;
64199;SDS011;50516;52.272;5.136;2022-12-18T08:56:31;24.73;;;14.47;;
64199;SDS011;50516;52.272;5.136;2022-12-18T08:58:57;26.07;;;15.07;;
64199;SDS011;50516;52.272;5.136;2022-12-18T09:01:23;28.63;;;14.33;;
64199;SDS011;50516;52.272;5.136;2022-12-18T09:03:49;24.73;;;15.13;;
64199;SDS011;50516;52.272;5.136;2022-12-18T09:06:16;22.70;;;13.30;;
64199;SDS011;50516;52.272;5.136;2022-12-18T09:08:43;25.47;;;14.10;;
64199;SDS011;50516;52.272;5.136;2022-12-18T09:11:30;22.73;;;12.87;;
64199;SDS011;50516;52.272;5.136;2022-12-18T09:13:55;25.07;;;14.07;;
64199;SDS011;50516;52.272;5.136;2022-12-18T09:16:22;22.20;;;13.90;;
64199;SDS011;50516;52.272;5.136;2022-12-18T09:18:48;29.87;;;13.67;;
64199;SDS011;50516;52.272;5.136;2022-12-18T09:21:17;22.87;;;13.70;;
64199;SDS011;50516;52.272;5.136;2022-12-18T09:23:48;25.60;;;13.57;;
64199;SDS011;50516;52.272;5.136;2022-12-18T09:26:15;27.40;;;14.93;;
64199;SDS011;50516;52.272;5.136;2022-12-18T09:28:40;28.17;;;14.03;;
64199;SDS011;50516;52.272;5.136;2022-12-18T09:31:07;25.43;;;14.37;;
64199;SDS011;50516;52.272;5.136;2022-12-18T09:33:36;25.57;;;14.60;;
64199;SDS011;50516;52.272;5.136;2022-12-18T09:36:03;23.03;;;14.23;;
64199;SDS011;50516;52.272;5.136;2022-12-18T09:38:30;26.40;;;13.57;;
64199;SDS011;50516;52.272;5.136;2022-12-18T09:41:39;21.83;;;12.63;;
64199;SDS011;50516;52.272;5.136;2022-12-18T09:44:18;28.53;;;16.00;;
64199;SDS011;50516;52.272;5.136;2022-12-18T09:46:46;25.07;;;13.63;;
64199;SDS011;50516;52.272;5.136;2022-12-18T09:49:17;21.87;;;12.73;;
64199;SDS011;50516;52.272;5.136;2022-12-18T09:51:47;27.17;;;14.37;;
64199;SDS011;50516;52.272;5.136;2022-12-18T09:54:37;25.57;;;14.43;;
64199;SDS011;50516;52.272;5.136;2022-12-18T09:57:04;23.57;;;13.70;;
64199;SDS011;50516;52.272;5.136;2022-12-18T09:59:39;25.93;;;14.13;;
64199;SDS011;50516;52.272;5.136;2022-12-18T10:02:14;25.53;;;14.50;;
64199;SDS011;50516;52.272;5.136;2022-12-18T10:04:47;24.87;;;13.40;;
64199;SDS011;50516;52.272;5.136;2022-12-18T10:07:43;25.63;;;12.40;;
64199;SDS011;50516;52.272;5.136;2022-12-18T10:13:07;22.80;;;13.63;;
64199;SDS011;50516;52.272;5.136;2022-12-18T10:16:02;21.67;;;13.60;;
64199;SDS011;50516;52.272;5.136;2022-12-18T10:18:58;24.07;;;13.77;;
64199;SDS011;50516;52.272;5.136;2022-12-18T10:26:41;22.40;;;13.60;;
64199;SDS011;50516;52.272;5.136;2022-12-18T10:29:14;21.50;;;13.03;;
64199;SDS011;50516;52.272;5.136;2022-12-18T10:31:40;25.50;;;14.13;;
64199;SDS011;50516;52.272;5.136;2022-12-18T10:34:12;22.90;;;13.27;;
64199;SDS011;50516;52.272;5.136;2022-12-18T10:36:38;23.23;;;14.73;;
64199;SDS011;50516;52.272;5.136;2022-12-18T10:39:22;21.37;;;13.03;;
64199;SDS011;50516;52.272;5.136;2022-12-18T10:41:51;24.33;;;13.03;;
64199;SDS011;50516;52.272;5.136;2022-12-18T10:44:17;22.63;;;13.83;;
64199;SDS011;50516;52.272;5.136;2022-12-18T10:46:48;20.87;;;12.93;;
64199;SDS011;50516;52.272;5.136;2022-12-18T10:49:27;22.70;;;13.43;;
64199;SDS011;50516;52.272;5.136;2022-12-18T10:54:57;20.97;;;12.80;;
64199;SDS011;50516;52.272;5.136;2022-12-18T10:57:34;17.13;;;11.80;;
64199;SDS011;50516;52.272;5.136;2022-12-18T11:02:46;20.13;;;12.63;;
64199;SDS011;50516;52.272;5.136;2022-12-18T11:05:30;20.80;;;12.27;;
64199;SDS011;50516;52.272;5.136;2022-12-18T11:08:01;21.53;;;12.53;;
64199;SDS011;50516;52.272;5.136;2022-12-18T11:10:35;21.13;;;12.83;;
64199;SDS011;50516;52.272;5.136;2022-12-18T11:13:15;22.52;;;13.43;;
64199;SDS011;50516;52.272;5.136;2022-12-18T11:15:43;22.40;;;13.33;;
64199;SDS011;50516;52.272;5.136;2022-12-18T11:18:16;22.60;;;13.27;;
64199;SDS011;50516;52.272;5.136;2022-12-18T11:20:50;24.17;;;14.43;;
64199;SDS011;50516;52.272;5.136;2022-12-18T11:23:18;22.57;;;12.87;;
64199;SDS011;50516;52.272;5.136;2022-12-18T11:26:06;21.83;;;13.83;;
64199;SDS011;50516;52.272;5.136;2022-12-18T11:31:17;23.40;;;12.73;;
64199;SDS011;50516;52.272;5.136;2022-12-18T11:33:46;19.83;;;12.90;;
64199;SDS011;50516;52.272;5.136;2022-12-18T11:36:25;20.90;;;12.47;;
64199;SDS011;50516;52.272;5.136;2022-12-18T11:38:56;22.70;;;13.63;;
64199;SDS011;50516;52.272;5.136;2022-12-18T11:41:30;22.00;;;13.97;;
64199;SDS011;50516;52.272;5.136;2022-12-18T11:44:22;25.33;;;13.60;;
64199;SDS011;50516;52.272;5.136;2022-12-18T11:46:55;25.13;;;13.43;;
64199;SDS011;50516;52.272;5.136;2022-12-18T11:49:26;21.23;;;13.03;;
64199;SDS011;50516;52.272;5.136;2022-12-18T11:52:00;22.13;;;14.65;;
64199;SDS011;50516;52.272;5.136;2022-12-18T11:54:30;22.00;;;13.50;;
64199;SDS011;50516;52.272;5.136;2022-12-18T11:56:56;23.83;;;13.93;;
64199;SDS011;50516;52.272;5.136;2022-12-18T11:59:32;23.35;;;13.77;;
64199;SDS011;50516;52.272;5.136;2022-12-18T12:18:49;20.02;;;13.23;;
64199;SDS011;50516;52.272;5.136;2022-12-18T12:21:39;22.17;;;13.60;;
64199;SDS011;50516;52.272;5.136;2022-12-18T12:24:13;29.43;;;14.50;;
64199;SDS011;50516;52.272;5.136;2022-12-18T12:40:07;19.40;;;12.90;;
64199;SDS011;50516;52.272;5.136;2022-12-18T12:42:41;22.38;;;12.05;;
64199;SDS011;50516;52.272;5.136;2022-12-18T12:45:36;23.75;;;13.23;;
64199;SDS011;50516;52.272;5.136;2022-12-18T12:48:06;22.67;;;12.70;;
64199;SDS011;50516;52.272;5.136;2022-12-18T12:53:07;22.03;;;13.03;;
64199;SDS011;50516;52.272;5.136;2022-12-18T12:55:40;20.55;;;12.98;;
64199;SDS011;50516;52.272;5.136;2022-12-18T12:58:14;23.65;;;14.35;;
64199;SDS011;50516;52.272;5.136;2022-12-18T13:00:46;20.77;;;12.65;;
64199;SDS011;50516;52.272;5.136;2022-12-18T13:06:02;22.13;;;12.77;;
64199;SDS011;50516;52.272;5.136;2022-12-18T13:08:51;19.40;;;12.93;;
64199;SDS011;50516;52.272;5.136;2022-12-18T13:11:31;19.25;;;12.43;;
64199;SDS011;50516;52.272;5.136;2022-12-18T13:14:27;24.75;;;13.82;;
64199;SDS011;50516;52.272;5.136;2022-12-18T13:20:09;23.17;;;13.23;;
64199;SDS011;50516;52.272;5.136;2022-12-18T13:22:37;20.17;;;11.98;;
64199;SDS011;50516;52.272;5.136;2022-12-18T13:27:59;22.15;;;12.43;;
64199;SDS011;50516;52.272;5.136;2022-12-18T13:35:39;20.85;;;13.38;;
64199;SDS011;50516;52.272;5.136;2022-12-18T13:43:47;25.63;;;13.88;;
64199;SDS011;50516;52.272;5.136;2022-12-18T13:51:38;26.13;;;14.02;;
64199;SDS011;50516;52.272;5.136;2022-12-18T13:54:13;22.20;;;13.10;;
64199;SDS011;50516;52.272;5.136;2022-12-18T13:57:02;21.92;;;13.13;;
64199;SDS011;50516;52.272;5.136;2022-12-18T13:59:34;22.43;;;13.17;;
64199;SDS011;50516;52.272;5.136;2022-12-18T14:02:19;21.10;;;13.03;;
64199;SDS011;50516;52.272;5.136;2022-12-18T14:04:47;20.13;;;12.40;;
64199;SDS011;50516;52.272;5.136;2022-12-18T14:07:14;22.05;;;12.57;;
64199;SDS011;50516;52.272;5.136;2022-12-18T14:09:57;22.58;;;13.25;;
64199;SDS011;50516;52.272;5.136;2022-12-18T14:12:32;23.88;;;14.35;;
64199;SDS011;50516;52.272;5.136;2022-12-18T14:18:26;18.63;;;11.63;;
64199;SDS011;50516;52.272;5.136;2022-12-18T14:21:00;23.35;;;12.50;;
64199;SDS011;50516;52.272;5.136;2022-12-18T14:26:21;21.85;;;13.82;;
64199;SDS011;50516;52.272;5.136;2022-12-18T14:28:50;20.45;;;12.95;;
64199;SDS011;50516;52.272;5.136;2022-12-18T14:31:20;21.02;;;12.57;;
64199;SDS011;50516;52.272;5.136;2022-12-18T14:33:47;25.53;;;14.63;;
64199;SDS011;50516;52.272;5.136;2022-12-18T14:36:15;27.30;;;14.70;;
64199;SDS011;50516;52.272;5.136;2022-12-18T14:38:42;24.03;;;14.87;;
64199;SDS011;50516;52.272;5.136;2022-12-18T14:41:15;24.73;;;14.07;;
64199;SDS011;50516;52.272;5.136;2022-12-18T14:43:42;23.42;;;13.35;;
64199;SDS011;50516;52.272;5.136;2022-12-18T14:51:48;25.70;;;15.38;;
64199;SDS011;50516;52.272;5.136;2022-12-18T14:54:16;26.00;;;15.90;;
64199;SDS011;50516;52.272;5.136;2022-12-18T14:56:44;30.13;;;16.43;;
64199;SDS011;50516;52.272;5.136;2022-12-18T14:59:16;24.33;;;14.93;;
64199;SDS011;50516;52.272;5.136;2022-12-18T15:01:45;22.23;;;13.35;;
64199;SDS011;50516;52.272;5.136;2022-12-18T15:04:23;22.52;;;13.20;;
64199;SDS011;50516;52.272;5.136;2022-12-18T15:06:50;26.20;;;16.73;;
64199;SDS011;50516;52.272;5.136;2022-12-18T15:09:28;26.73;;;15.43;;
64199;SDS011;50516;52.272;5.136;2022-12-18T15:11:57;27.75;;;16.35;;
64199;SDS011;50516;52.272;5.136;2022-12-18T15:16:55;27.98;;;14.88;;
64199;SDS011;50516;52.272;5.136;2022-12-18T15:19:22;25.00;;;16.27;;
64199;SDS011;50516;52.272;5.136;2022-12-18T15:22:01;25.55;;;14.75;;
64199;SDS011;50516;52.272;5.136;2022-12-18T15:24:27;24.65;;;15.02;;
64199;SDS011;50516;52.272;5.136;2022-12-18T15:26:56;24.63;;;15.85;;
64199;SDS011;50516;52.272;5.136;2022-12-18T15:29:22;23.00;;;14.63;;
64199;SDS011;50516;52.272;5.136;2022-12-18T15:32:00;25.75;;;15.13;;
64199;SDS011;50516;52.272;5.136;2022-12-18T15:34:28;24.00;;;14.32;;
64199;SDS011;50516;52.272;5.136;2022-12-18T15:36:54;24.15;;;14.57;;
64199;SDS011;50516;52.272;5.136;2022-12-18T15:39:19;27.00;;;15.07;;
64199;SDS011;50516;52.272;5.136;2022-12-18T15:41:45;31.63;;;15.55;;
64199;SDS011;50516;52.272;5.136;2022-12-18T15:44:29;29.07;;;15.50;;
64199;SDS011;50516;52.272;5.136;2022-12-18T15:46:55;27.50;;;15.87;;
64199;SDS011;50516;52.272;5.136;2022-12-18T15:49:20;25.60;;;14.75;;
64199;SDS011;50516;52.272;5.136;2022-12-18T15:51:47;29.88;;;16.52;;
64199;SDS011;50516;52.272;5.136;2022-12-18T15:54:17;24.97;;;15.70;;
64199;SDS011;50516;52.272;5.136;2022-12-18T15:57:02;26.02;;;15.00;;
64199;SDS011;50516;52.272;5.136;2022-12-18T15:59:46;21.98;;;14.40;;
64199;SDS011;50516;52.272;5.136;2022-12-18T16:02:13;22.23;;;14.67;;
64199;SDS011;50516;52.272;5.136;2022-12-18T16:04:41;23.92;;;14.40;;
64199;SDS011;50516;52.272;5.136;2022-12-18T16:07:07;25.33;;;15.23;;
64199;SDS011;50516;52.272;5.136;2022-12-18T16:09:32;26.63;;;15.00;;
64199;SDS011;50516;52.272;5.136;2022-12-18T16:11:57;23.95;;;15.00;;
64199;SDS011;50516;52.272;5.136;2022-12-18T16:14:27;22.67;;;13.97;;
64199;SDS011;50516;52.272;5.136;2022-12-18T16:16:57;24.97;;;15.60;;
64199;SDS011;50516;52.272;5.136;2022-12-18T16:19:27;23.80;;;14.53;;
64199;SDS011;50516;52.272;5.136;2022-12-18T16:21:54;27.10;;;15.23;;
64199;SDS011;50516;52.272;5.136;2022-12-18T16:24:21;27.03;;;16.63;;
64199;SDS011;50516;52.272;5.136;2022-12-18T16:26:48;27.70;;;16.10;;
64199;SDS011;50516;52.272;5.136;2022-12-18T16:29:16;26.70;;;15.93;;
64199;SDS011;50516;52.272;5.136;2022-12-18T16:31:41;25.37;;;14.73;;
64199;SDS011;50516;52.272;5.136;2022-12-18T16:34:13;22.73;;;14.70;;
64199;SDS011;50516;52.272;5.136;2022-12-18T16:36:47;26.85;;;16.90;;
64199;SDS011;50516;52.272;5.136;2022-12-18T16:39:15;26.85;;;15.73;;